sensor_id;sensor_type;location;lat;lon;timestamp;P1;durP1;ratioP1;P2;durP2;ratioP2
17826;SDS011;9038;48.208;16.308;2022-10-22T00:01:44;11.03;;;7.87;;
17826;SDS011;9038;48.208;16.308;2022-10-22T00:03:47;10.97;;;8.97;;
17826;SDS011;9038;48.208;16.308;2022-10-22T00:05:49;11.37;;;7.63;;
17826;SDS011;9038;48.208;16.308;2022-10-22T00:07:51;12.77;;;8.60;;
17826;SDS011;9038;48.208;16.308;2022-10-22T00:09:53;12.17;;;7.90;;
17826;SDS011;9038;48.208;16.308;2022-10-22T00:11:55;11.47;;;7.70;;
17826;SDS011;9038;48.208;16.308;2022-10-22T00:13:58;12.57;;;7.90;;
17826;SDS011;9038;48.208;16.308;2022-10-22T00:16:00;12.27;;;7.50;;
17826;SDS011;9038;48.208;16.308;2022-10-22T00:18:02;9.40;;;7.17;;
17826;SDS011;9038;48.208;16.308;2022-10-22T00:20:06;8.73;;;7.37;;
17826;SDS011;9038;48.208;16.308;2022-10-22T00:22:09;13.37;;;7.30;;
17826;SDS011;9038;48.208;16.308;2022-10-22T00:24:11;14.93;;;7.47;;
17826;SDS011;9038;48.208;16.308;2022-10-22T00:26:14;8.40;;;7.50;;
17826;SDS011;9038;48.208;16.308;2022-10-22T00:28:16;40.63;;;21.73;;
17826;SDS011;9038;48.208;16.308;2022-10-22T00:30:18;11.83;;;8.23;;
17826;SDS011;9038;48.208;16.308;2022-10-22T00:32:20;11.67;;;7.77;;
17826;SDS011;9038;48.208;16.308;2022-10-22T00:34:22;12.33;;;7.27;;
17826;SDS011;9038;48.208;16.308;2022-10-22T00:36:25;10.23;;;7.23;;
17826;SDS011;9038;48.208;16.308;2022-10-22T00:38:27;8.03;;;7.10;;
17826;SDS011;9038;48.208;16.308;2022-10-22T00:40:29;12.33;;;7.70;;
17826;SDS011;9038;48.208;16.308;2022-10-22T00:42:31;13.83;;;8.03;;
17826;SDS011;9038;48.208;16.308;2022-10-22T00:47:21;10.60;;;7.60;;
17826;SDS011;9038;48.208;16.308;2022-10-22T00:49:24;9.90;;;7.67;;
17826;SDS011;9038;48.208;16.308;2022-10-22T00:51:28;11.27;;;7.60;;
17826;SDS011;9038;48.208;16.308;2022-10-22T00:53:34;11.17;;;7.40;;
17826;SDS011;9038;48.208;16.308;2022-10-22T00:55:40;9.13;;;7.27;;
17826;SDS011;9038;48.208;16.308;2022-10-22T00:57:43;11.77;;;7.83;;
17826;SDS011;9038;48.208;16.308;2022-10-22T00:59:46;8.37;;;7.20;;
17826;SDS011;9038;48.208;16.308;2022-10-22T01:01:48;11.37;;;7.13;;
17826;SDS011;9038;48.208;16.308;2022-10-22T01:03:52;10.43;;;7.60;;
17826;SDS011;9038;48.208;16.308;2022-10-22T01:05:55;10.20;;;7.47;;
17826;SDS011;9038;48.208;16.308;2022-10-22T01:08:00;12.17;;;7.67;;
17826;SDS011;9038;48.208;16.308;2022-10-22T01:10:04;12.20;;;7.80;;
17826;SDS011;9038;48.208;16.308;2022-10-22T01:12:14;13.27;;;7.73;;
17826;SDS011;9038;48.208;16.308;2022-10-22T01:14:23;12.97;;;7.80;;
17826;SDS011;9038;48.208;16.308;2022-10-22T01:16:33;11.03;;;7.60;;
17826;SDS011;9038;48.208;16.308;2022-10-22T01:18:42;13.33;;;7.77;;
17826;SDS011;9038;48.208;16.308;2022-10-22T01:20:56;11.47;;;7.30;;
17826;SDS011;9038;48.208;16.308;2022-10-22T01:23:07;9.77;;;7.87;;
17826;SDS011;9038;48.208;16.308;2022-10-22T01:25:23;8.20;;;7.10;;
17826;SDS011;9038;48.208;16.308;2022-10-22T01:27:38;12.97;;;8.17;;
17826;SDS011;9038;48.208;16.308;2022-10-22T01:29:56;14.20;;;7.83;;
17826;SDS011;9038;48.208;16.308;2022-10-22T01:32:01;13.33;;;7.77;;
17826;SDS011;9038;48.208;16.308;2022-10-22T01:34:09;10.57;;;7.60;;
17826;SDS011;9038;48.208;16.308;2022-10-22T01:36:13;10.37;;;7.53;;
17826;SDS011;9038;48.208;16.308;2022-10-22T01:38:18;12.13;;;7.50;;
17826;SDS011;9038;48.208;16.308;2022-10-22T01:40:23;9.67;;;7.37;;
17826;SDS011;9038;48.208;16.308;2022-10-22T01:42:26;9.90;;;8.17;;
17826;SDS011;9038;48.208;16.308;2022-10-22T01:44:29;11.57;;;8.13;;
17826;SDS011;9038;48.208;16.308;2022-10-22T01:46:33;9.77;;;7.43;;
17826;SDS011;9038;48.208;16.308;2022-10-22T01:48:40;10.27;;;7.30;;
17826;SDS011;9038;48.208;16.308;2022-10-22T01:51:00;11.17;;;9.23;;
17826;SDS011;9038;48.208;16.308;2022-10-22T01:53:12;13.10;;;7.80;;
17826;SDS011;9038;48.208;16.308;2022-10-22T01:55:26;12.43;;;7.13;;
17826;SDS011;9038;48.208;16.308;2022-10-22T01:57:35;9.93;;;7.57;;
17826;SDS011;9038;48.208;16.308;2022-10-22T01:59:47;9.57;;;7.40;;
17826;SDS011;9038;48.208;16.308;2022-10-22T02:01:55;10.37;;;7.27;;
17826;SDS011;9038;48.208;16.308;2022-10-22T02:04:05;9.90;;;7.77;;
17826;SDS011;9038;48.208;16.308;2022-10-22T02:06:14;12.43;;;6.97;;
17826;SDS011;9038;48.208;16.308;2022-10-22T02:08:21;8.37;;;7.37;;
17826;SDS011;9038;48.208;16.308;2022-10-22T02:10:25;10.60;;;7.53;;
17826;SDS011;9038;48.208;16.308;2022-10-22T02:12:29;9.97;;;7.17;;
17826;SDS011;9038;48.208;16.308;2022-10-22T02:14:34;10.13;;;7.73;;
17826;SDS011;9038;48.208;16.308;2022-10-22T02:16:40;10.10;;;7.67;;
17826;SDS011;9038;48.208;16.308;2022-10-22T02:18:46;10.93;;;7.40;;
17826;SDS011;9038;48.208;16.308;2022-10-22T02:20:52;14.10;;;7.87;;
17826;SDS011;9038;48.208;16.308;2022-10-22T02:22:55;11.23;;;7.50;;
17826;SDS011;9038;48.208;16.308;2022-10-22T02:24:59;9.23;;;6.97;;
17826;SDS011;9038;48.208;16.308;2022-10-22T02:27:03;9.23;;;6.77;;
17826;SDS011;9038;48.208;16.308;2022-10-22T02:29:12;9.03;;;7.33;;
17826;SDS011;9038;48.208;16.308;2022-10-22T02:31:20;8.30;;;7.50;;
17826;SDS011;9038;48.208;16.308;2022-10-22T02:33:25;13.63;;;7.90;;
17826;SDS011;9038;48.208;16.308;2022-10-22T02:35:31;12.77;;;7.63;;
17826;SDS011;9038;48.208;16.308;2022-10-22T02:37:34;10.90;;;7.70;;
17826;SDS011;9038;48.208;16.308;2022-10-22T02:39:37;11.63;;;7.50;;
17826;SDS011;9038;48.208;16.308;2022-10-22T02:41:39;10.77;;;7.23;;
17826;SDS011;9038;48.208;16.308;2022-10-22T02:43:44;11.27;;;7.87;;
17826;SDS011;9038;48.208;16.308;2022-10-22T02:45:49;14.40;;;8.03;;
17826;SDS011;9038;48.208;16.308;2022-10-22T02:47:51;10.07;;;7.00;;
17826;SDS011;9038;48.208;16.308;2022-10-22T02:49:53;13.50;;;7.90;;
17826;SDS011;9038;48.208;16.308;2022-10-22T02:51:57;13.23;;;8.10;;
17826;SDS011;9038;48.208;16.308;2022-10-22T02:54:01;13.63;;;8.57;;
17826;SDS011;9038;48.208;16.308;2022-10-22T02:56:03;12.07;;;8.37;;
17826;SDS011;9038;48.208;16.308;2022-10-22T02:58:05;11.20;;;7.20;;
17826;SDS011;9038;48.208;16.308;2022-10-22T03:00:07;12.23;;;7.40;;
17826;SDS011;9038;48.208;16.308;2022-10-22T03:02:11;10.50;;;7.73;;
17826;SDS011;9038;48.208;16.308;2022-10-22T03:04:13;12.43;;;7.07;;
17826;SDS011;9038;48.208;16.308;2022-10-22T03:06:15;8.40;;;7.20;;
17826;SDS011;9038;48.208;16.308;2022-10-22T03:08:18;13.67;;;7.30;;
17826;SDS011;9038;48.208;16.308;2022-10-22T03:10:20;20.93;;;8.70;;
17826;SDS011;9038;48.208;16.308;2022-10-22T03:12:22;10.40;;;7.40;;
17826;SDS011;9038;48.208;16.308;2022-10-22T03:14:24;14.50;;;7.53;;
17826;SDS011;9038;48.208;16.308;2022-10-22T03:16:26;12.83;;;7.90;;
17826;SDS011;9038;48.208;16.308;2022-10-22T03:18:28;13.60;;;7.77;;
17826;SDS011;9038;48.208;16.308;2022-10-22T03:20:30;10.57;;;7.43;;
17826;SDS011;9038;48.208;16.308;2022-10-22T03:22:32;9.07;;;7.20;;
17826;SDS011;9038;48.208;16.308;2022-10-22T03:24:37;12.30;;;7.90;;
17826;SDS011;9038;48.208;16.308;2022-10-22T03:26:41;10.80;;;7.77;;
17826;SDS011;9038;48.208;16.308;2022-10-22T03:28:44;11.50;;;8.20;;
17826;SDS011;9038;48.208;16.308;2022-10-22T03:30:47;10.77;;;7.57;;
17826;SDS011;9038;48.208;16.308;2022-10-22T03:32:49;11.67;;;8.17;;
17826;SDS011;9038;48.208;16.308;2022-10-22T03:34:51;10.27;;;7.30;;
17826;SDS011;9038;48.208;16.308;2022-10-22T03:36:53;11.30;;;8.13;;
17826;SDS011;9038;48.208;16.308;2022-10-22T03:38:57;11.83;;;7.83;;
17826;SDS011;9038;48.208;16.308;2022-10-22T03:41:01;8.73;;;7.20;;
17826;SDS011;9038;48.208;16.308;2022-10-22T03:43:03;10.83;;;7.83;;
17826;SDS011;9038;48.208;16.308;2022-10-22T03:45:05;7.97;;;7.17;;
17826;SDS011;9038;48.208;16.308;2022-10-22T03:47:08;10.03;;;7.67;;
17826;SDS011;9038;48.208;16.308;2022-10-22T03:49:10;10.70;;;7.67;;
17826;SDS011;9038;48.208;16.308;2022-10-22T03:51:12;11.77;;;8.47;;
17826;SDS011;9038;48.208;16.308;2022-10-22T03:53:14;12.37;;;7.63;;
17826;SDS011;9038;48.208;16.308;2022-10-22T03:55:16;10.43;;;7.90;;
17826;SDS011;9038;48.208;16.308;2022-10-22T03:57:19;11.53;;;7.47;;
17826;SDS011;9038;48.208;16.308;2022-10-22T03:59:21;12.53;;;8.00;;
17826;SDS011;9038;48.208;16.308;2022-10-22T04:01:23;10.70;;;7.53;;
17826;SDS011;9038;48.208;16.308;2022-10-22T04:03:26;12.07;;;8.23;;
17826;SDS011;9038;48.208;16.308;2022-10-22T04:05:27;9.20;;;7.63;;
17826;SDS011;9038;48.208;16.308;2022-10-22T04:07:29;8.57;;;7.40;;
17826;SDS011;9038;48.208;16.308;2022-10-22T04:09:31;10.90;;;7.33;;
17826;SDS011;9038;48.208;16.308;2022-10-22T04:11:34;11.77;;;7.33;;
17826;SDS011;9038;48.208;16.308;2022-10-22T04:13:37;13.83;;;7.97;;
17826;SDS011;9038;48.208;16.308;2022-10-22T04:15:39;12.17;;;7.67;;
17826;SDS011;9038;48.208;16.308;2022-10-22T04:17:41;13.03;;;8.17;;
17826;SDS011;9038;48.208;16.308;2022-10-22T04:19:43;8.80;;;7.80;;
17826;SDS011;9038;48.208;16.308;2022-10-22T04:21:45;11.40;;;8.30;;
17826;SDS011;9038;48.208;16.308;2022-10-22T04:23:47;17.40;;;8.43;;
17826;SDS011;9038;48.208;16.308;2022-10-22T04:25:56;10.67;;;7.73;;
17826;SDS011;9038;48.208;16.308;2022-10-22T04:27:58;9.33;;;7.70;;
17826;SDS011;9038;48.208;16.308;2022-10-22T04:30:02;11.37;;;7.67;;
17826;SDS011;9038;48.208;16.308;2022-10-22T04:32:05;12.30;;;8.23;;
17826;SDS011;9038;48.208;16.308;2022-10-22T04:34:07;11.57;;;7.77;;
17826;SDS011;9038;48.208;16.308;2022-10-22T04:36:10;8.97;;;7.33;;
17826;SDS011;9038;48.208;16.308;2022-10-22T04:38:14;10.97;;;8.00;;
17826;SDS011;9038;48.208;16.308;2022-10-22T04:40:16;13.27;;;7.20;;
17826;SDS011;9038;48.208;16.308;2022-10-22T04:42:18;8.27;;;7.13;;
17826;SDS011;9038;48.208;16.308;2022-10-22T04:44:20;9.30;;;7.67;;
17826;SDS011;9038;48.208;16.308;2022-10-22T04:46:24;10.40;;;8.07;;
17826;SDS011;9038;48.208;16.308;2022-10-22T04:48:26;11.67;;;8.37;;
17826;SDS011;9038;48.208;16.308;2022-10-22T04:50:28;11.73;;;7.60;;
17826;SDS011;9038;48.208;16.308;2022-10-22T04:52:30;10.07;;;7.80;;
17826;SDS011;9038;48.208;16.308;2022-10-22T04:54:32;9.63;;;7.20;;
17826;SDS011;9038;48.208;16.308;2022-10-22T04:56:34;14.37;;;7.90;;
17826;SDS011;9038;48.208;16.308;2022-10-22T04:58:36;10.43;;;7.97;;
17826;SDS011;9038;48.208;16.308;2022-10-22T05:00:39;10.70;;;7.60;;
17826;SDS011;9038;48.208;16.308;2022-10-22T05:02:42;11.40;;;8.90;;
17826;SDS011;9038;48.208;16.308;2022-10-22T05:04:48;11.30;;;7.87;;
17826;SDS011;9038;48.208;16.308;2022-10-22T05:06:50;10.63;;;7.90;;
17826;SDS011;9038;48.208;16.308;2022-10-22T05:08:53;12.30;;;8.33;;
17826;SDS011;9038;48.208;16.308;2022-10-22T05:10:56;8.60;;;7.40;;
17826;SDS011;9038;48.208;16.308;2022-10-22T05:12:58;13.87;;;8.67;;
17826;SDS011;9038;48.208;16.308;2022-10-22T05:14:59;10.93;;;7.97;;
17826;SDS011;9038;48.208;16.308;2022-10-22T05:17:02;13.10;;;8.57;;
17826;SDS011;9038;48.208;16.308;2022-10-22T05:19:05;11.57;;;7.97;;
17826;SDS011;9038;48.208;16.308;2022-10-22T05:21:08;10.07;;;7.67;;
17826;SDS011;9038;48.208;16.308;2022-10-22T05:23:11;16.07;;;8.27;;
17826;SDS011;9038;48.208;16.308;2022-10-22T05:25:13;11.10;;;8.00;;
17826;SDS011;9038;48.208;16.308;2022-10-22T05:27:15;8.73;;;7.77;;
17826;SDS011;9038;48.208;16.308;2022-10-22T05:29:17;9.80;;;8.13;;
17826;SDS011;9038;48.208;16.308;2022-10-22T05:31:19;10.83;;;8.43;;
17826;SDS011;9038;48.208;16.308;2022-10-22T05:33:21;10.03;;;8.00;;
17826;SDS011;9038;48.208;16.308;2022-10-22T05:35:25;13.37;;;8.43;;
17826;SDS011;9038;48.208;16.308;2022-10-22T05:37:27;11.10;;;9.30;;
17826;SDS011;9038;48.208;16.308;2022-10-22T05:39:29;10.20;;;7.40;;
17826;SDS011;9038;48.208;16.308;2022-10-22T05:41:31;12.07;;;8.90;;
17826;SDS011;9038;48.208;16.308;2022-10-22T05:43:35;9.50;;;8.17;;
17826;SDS011;9038;48.208;16.308;2022-10-22T05:45:37;10.53;;;8.43;;
17826;SDS011;9038;48.208;16.308;2022-10-22T05:47:40;13.70;;;8.73;;
17826;SDS011;9038;48.208;16.308;2022-10-22T05:49:42;11.03;;;8.50;;
17826;SDS011;9038;48.208;16.308;2022-10-22T05:51:45;11.90;;;8.60;;
17826;SDS011;9038;48.208;16.308;2022-10-22T05:53:50;12.03;;;9.13;;
17826;SDS011;9038;48.208;16.308;2022-10-22T05:55:53;10.40;;;8.40;;
17826;SDS011;9038;48.208;16.308;2022-10-22T05:57:55;16.63;;;8.80;;
17826;SDS011;9038;48.208;16.308;2022-10-22T05:59:57;15.03;;;9.00;;
17826;SDS011;9038;48.208;16.308;2022-10-22T06:01:59;11.73;;;8.30;;
17826;SDS011;9038;48.208;16.308;2022-10-22T06:04:01;11.53;;;8.73;;
17826;SDS011;9038;48.208;16.308;2022-10-22T06:06:06;10.10;;;8.37;;
17826;SDS011;9038;48.208;16.308;2022-10-22T06:08:19;10.90;;;7.77;;
17826;SDS011;9038;48.208;16.308;2022-10-22T06:10:21;13.77;;;8.83;;
17826;SDS011;9038;48.208;16.308;2022-10-22T06:12:23;10.20;;;8.10;;
17826;SDS011;9038;48.208;16.308;2022-10-22T06:14:25;9.33;;;7.73;;
17826;SDS011;9038;48.208;16.308;2022-10-22T06:16:28;12.23;;;7.87;;
17826;SDS011;9038;48.208;16.308;2022-10-22T06:18:30;15.53;;;8.10;;
17826;SDS011;9038;48.208;16.308;2022-10-22T06:20:33;12.63;;;8.47;;
17826;SDS011;9038;48.208;16.308;2022-10-22T06:22:35;11.17;;;8.33;;
17826;SDS011;9038;48.208;16.308;2022-10-22T06:24:39;10.53;;;7.97;;
17826;SDS011;9038;48.208;16.308;2022-10-22T06:26:40;12.63;;;8.37;;
17826;SDS011;9038;48.208;16.308;2022-10-22T06:28:42;12.37;;;8.43;;
17826;SDS011;9038;48.208;16.308;2022-10-22T06:30:44;11.80;;;8.50;;
17826;SDS011;9038;48.208;16.308;2022-10-22T06:32:46;11.03;;;8.00;;
17826;SDS011;9038;48.208;16.308;2022-10-22T06:34:48;13.37;;;8.83;;
17826;SDS011;9038;48.208;16.308;2022-10-22T06:36:51;13.53;;;8.90;;
17826;SDS011;9038;48.208;16.308;2022-10-22T06:38:53;9.20;;;7.63;;
17826;SDS011;9038;48.208;16.308;2022-10-22T06:41:00;12.63;;;9.00;;
17826;SDS011;9038;48.208;16.308;2022-10-22T06:43:03;13.00;;;8.80;;
17826;SDS011;9038;48.208;16.308;2022-10-22T06:45:06;14.67;;;9.13;;
17826;SDS011;9038;48.208;16.308;2022-10-22T06:47:09;13.63;;;8.70;;
17826;SDS011;9038;48.208;16.308;2022-10-22T06:49:11;12.97;;;9.70;;
17826;SDS011;9038;48.208;16.308;2022-10-22T06:51:14;9.43;;;7.83;;
17826;SDS011;9038;48.208;16.308;2022-10-22T06:53:16;13.07;;;9.23;;
17826;SDS011;9038;48.208;16.308;2022-10-22T06:55:18;12.23;;;8.23;;
17826;SDS011;9038;48.208;16.308;2022-10-22T06:57:22;14.97;;;8.97;;
17826;SDS011;9038;48.208;16.308;2022-10-22T06:59:23;15.30;;;8.73;;
17826;SDS011;9038;48.208;16.308;2022-10-22T07:01:26;12.10;;;9.13;;
17826;SDS011;9038;48.208;16.308;2022-10-22T07:03:29;9.60;;;7.57;;
17826;SDS011;9038;48.208;16.308;2022-10-22T07:05:32;11.50;;;8.87;;
17826;SDS011;9038;48.208;16.308;2022-10-22T07:07:34;13.00;;;8.97;;
17826;SDS011;9038;48.208;16.308;2022-10-22T07:09:36;11.93;;;8.93;;
17826;SDS011;9038;48.208;16.308;2022-10-22T07:11:39;10.20;;;8.67;;
17826;SDS011;9038;48.208;16.308;2022-10-22T07:13:43;14.13;;;9.23;;
17826;SDS011;9038;48.208;16.308;2022-10-22T07:15:50;12.43;;;9.70;;
17826;SDS011;9038;48.208;16.308;2022-10-22T07:17:52;9.63;;;8.20;;
17826;SDS011;9038;48.208;16.308;2022-10-22T07:19:54;11.83;;;8.93;;
17826;SDS011;9038;48.208;16.308;2022-10-22T07:21:56;11.13;;;8.27;;
17826;SDS011;9038;48.208;16.308;2022-10-22T07:23:58;11.80;;;8.30;;
17826;SDS011;9038;48.208;16.308;2022-10-22T07:26:00;10.17;;;9.03;;
17826;SDS011;9038;48.208;16.308;2022-10-22T07:28:03;9.83;;;8.83;;
17826;SDS011;9038;48.208;16.308;2022-10-22T07:30:10;15.50;;;9.23;;
17826;SDS011;9038;48.208;16.308;2022-10-22T07:32:12;18.97;;;9.40;;
17826;SDS011;9038;48.208;16.308;2022-10-22T07:34:14;10.47;;;8.37;;
17826;SDS011;9038;48.208;16.308;2022-10-22T07:36:16;11.13;;;8.70;;
17826;SDS011;9038;48.208;16.308;2022-10-22T07:38:18;15.20;;;8.87;;
17826;SDS011;9038;48.208;16.308;2022-10-22T07:40:20;9.50;;;8.43;;
17826;SDS011;9038;48.208;16.308;2022-10-22T07:42:22;10.73;;;8.57;;
17826;SDS011;9038;48.208;16.308;2022-10-22T07:44:24;9.83;;;8.30;;
17826;SDS011;9038;48.208;16.308;2022-10-22T07:46:27;11.93;;;8.90;;
17826;SDS011;9038;48.208;16.308;2022-10-22T07:48:29;14.57;;;9.70;;
17826;SDS011;9038;48.208;16.308;2022-10-22T07:50:31;13.17;;;9.67;;
17826;SDS011;9038;48.208;16.308;2022-10-22T07:52:33;11.77;;;9.73;;
17826;SDS011;9038;48.208;16.308;2022-10-22T07:54:35;13.37;;;10.00;;
17826;SDS011;9038;48.208;16.308;2022-10-22T07:56:37;12.47;;;10.10;;
17826;SDS011;9038;48.208;16.308;2022-10-22T07:58:39;12.07;;;9.53;;
17826;SDS011;9038;48.208;16.308;2022-10-22T08:00:41;10.50;;;9.40;;
17826;SDS011;9038;48.208;16.308;2022-10-22T08:02:44;16.80;;;10.50;;
17826;SDS011;9038;48.208;16.308;2022-10-22T08:04:46;28.93;;;12.43;;
17826;SDS011;9038;48.208;16.308;2022-10-22T08:06:48;14.20;;;10.93;;
17826;SDS011;9038;48.208;16.308;2022-10-22T08:08:50;18.13;;;11.27;;
17826;SDS011;9038;48.208;16.308;2022-10-22T08:10:52;12.87;;;10.73;;
17826;SDS011;9038;48.208;16.308;2022-10-22T08:12:55;16.50;;;10.77;;
17826;SDS011;9038;48.208;16.308;2022-10-22T08:14:57;14.33;;;11.33;;
17826;SDS011;9038;48.208;16.308;2022-10-22T08:17:00;15.60;;;11.87;;
17826;SDS011;9038;48.208;16.308;2022-10-22T08:19:03;16.43;;;12.07;;
17826;SDS011;9038;48.208;16.308;2022-10-22T08:21:05;14.80;;;12.03;;
17826;SDS011;9038;48.208;16.308;2022-10-22T08:23:07;17.10;;;12.37;;
17826;SDS011;9038;48.208;16.308;2022-10-22T08:25:09;16.90;;;13.83;;
17826;SDS011;9038;48.208;16.308;2022-10-22T08:27:12;14.93;;;11.47;;
17826;SDS011;9038;48.208;16.308;2022-10-22T08:29:14;15.50;;;12.10;;
17826;SDS011;9038;48.208;16.308;2022-10-22T08:31:15;19.07;;;14.23;;
17826;SDS011;9038;48.208;16.308;2022-10-22T08:33:17;16.10;;;11.33;;
17826;SDS011;9038;48.208;16.308;2022-10-22T08:35:21;15.67;;;12.00;;
17826;SDS011;9038;48.208;16.308;2022-10-22T08:37:22;14.53;;;11.67;;
17826;SDS011;9038;48.208;16.308;2022-10-22T08:39:25;14.67;;;11.30;;
17826;SDS011;9038;48.208;16.308;2022-10-22T08:41:27;17.10;;;12.60;;
17826;SDS011;9038;48.208;16.308;2022-10-22T08:46:14;16.67;;;13.47;;
17826;SDS011;9038;48.208;16.308;2022-10-22T08:48:33;18.90;;;12.73;;
17826;SDS011;9038;48.208;16.308;2022-10-22T08:50:44;17.00;;;12.43;;
17826;SDS011;9038;48.208;16.308;2022-10-22T08:52:48;20.53;;;15.13;;
17826;SDS011;9038;48.208;16.308;2022-10-22T08:54:54;16.27;;;12.70;;
17826;SDS011;9038;48.208;16.308;2022-10-22T08:57:03;18.17;;;13.60;;
17826;SDS011;9038;48.208;16.308;2022-10-22T08:59:20;16.47;;;13.97;;
17826;SDS011;9038;48.208;16.308;2022-10-22T09:01:30;19.83;;;13.77;;
17826;SDS011;9038;48.208;16.308;2022-10-22T09:03:37;17.63;;;13.93;;
17826;SDS011;9038;48.208;16.308;2022-10-22T09:05:50;18.93;;;13.90;;
17826;SDS011;9038;48.208;16.308;2022-10-22T09:07:59;24.87;;;15.93;;
17826;SDS011;9038;48.208;16.308;2022-10-22T09:10:01;23.80;;;15.07;;
17826;SDS011;9038;48.208;16.308;2022-10-22T09:12:04;20.10;;;14.17;;
17826;SDS011;9038;48.208;16.308;2022-10-22T09:14:08;25.63;;;17.73;;
17826;SDS011;9038;48.208;16.308;2022-10-22T09:16:15;22.33;;;15.03;;
17826;SDS011;9038;48.208;16.308;2022-10-22T09:18:22;21.23;;;15.90;;
17826;SDS011;9038;48.208;16.308;2022-10-22T09:20:35;17.77;;;14.77;;
17826;SDS011;9038;48.208;16.308;2022-10-22T09:22:48;20.33;;;15.53;;
17826;SDS011;9038;48.208;16.308;2022-10-22T09:24:57;14.73;;;13.00;;
17826;SDS011;9038;48.208;16.308;2022-10-22T09:27:06;14.50;;;12.83;;
17826;SDS011;9038;48.208;16.308;2022-10-22T09:29:12;15.73;;;13.70;;
17826;SDS011;9038;48.208;16.308;2022-10-22T09:31:19;18.07;;;12.73;;
17826;SDS011;9038;48.208;16.308;2022-10-22T09:33:23;14.07;;;11.80;;
17826;SDS011;9038;48.208;16.308;2022-10-22T09:35:26;17.80;;;13.17;;
17826;SDS011;9038;48.208;16.308;2022-10-22T09:37:28;15.87;;;13.23;;
17826;SDS011;9038;48.208;16.308;2022-10-22T09:39:32;12.93;;;10.93;;
17826;SDS011;9038;48.208;16.308;2022-10-22T09:41:37;15.97;;;12.13;;
17826;SDS011;9038;48.208;16.308;2022-10-22T09:43:39;15.87;;;11.83;;
17826;SDS011;9038;48.208;16.308;2022-10-22T09:45:42;18.57;;;12.47;;
17826;SDS011;9038;48.208;16.308;2022-10-22T09:47:44;15.00;;;12.03;;
17826;SDS011;9038;48.208;16.308;2022-10-22T09:49:46;14.63;;;12.30;;
17826;SDS011;9038;48.208;16.308;2022-10-22T09:51:49;20.17;;;12.43;;
17826;SDS011;9038;48.208;16.308;2022-10-22T09:53:54;13.37;;;11.93;;
17826;SDS011;9038;48.208;16.308;2022-10-22T09:55:59;14.80;;;12.80;;
17826;SDS011;9038;48.208;16.308;2022-10-22T09:58:07;13.80;;;12.13;;
17826;SDS011;9038;48.208;16.308;2022-10-22T10:00:16;17.73;;;12.40;;
17826;SDS011;9038;48.208;16.308;2022-10-22T10:02:19;14.90;;;11.87;;
17826;SDS011;9038;48.208;16.308;2022-10-22T10:04:23;12.80;;;11.23;;
17826;SDS011;9038;48.208;16.308;2022-10-22T10:06:25;12.40;;;11.13;;
17826;SDS011;9038;48.208;16.308;2022-10-22T10:08:31;14.67;;;10.60;;
17826;SDS011;9038;48.208;16.308;2022-10-22T10:10:34;13.03;;;11.67;;
17826;SDS011;9038;48.208;16.308;2022-10-22T10:12:43;11.77;;;10.57;;
17826;SDS011;9038;48.208;16.308;2022-10-22T10:14:51;11.77;;;10.57;;
17826;SDS011;9038;48.208;16.308;2022-10-22T10:17:02;13.57;;;10.27;;
17826;SDS011;9038;48.208;16.308;2022-10-22T10:19:16;11.27;;;10.07;;
17826;SDS011;9038;48.208;16.308;2022-10-22T10:21:36;13.00;;;11.63;;
17826;SDS011;9038;48.208;16.308;2022-10-22T10:23:50;12.07;;;10.67;;
17826;SDS011;9038;48.208;16.308;2022-10-22T10:26:00;12.17;;;10.93;;
17826;SDS011;9038;48.208;16.308;2022-10-22T10:28:14;12.37;;;10.73;;
17826;SDS011;9038;48.208;16.308;2022-10-22T10:30:40;10.57;;;9.57;;
17826;SDS011;9038;48.208;16.308;2022-10-22T10:33:03;10.90;;;9.83;;
17826;SDS011;9038;48.208;16.308;2022-10-22T10:35:14;10.60;;;9.53;;
17826;SDS011;9038;48.208;16.308;2022-10-22T10:37:23;12.50;;;9.73;;
17826;SDS011;9038;48.208;16.308;2022-10-22T10:39:29;10.80;;;9.63;;
17826;SDS011;9038;48.208;16.308;2022-10-22T10:41:42;10.50;;;9.27;;
17826;SDS011;9038;48.208;16.308;2022-10-22T10:44:01;12.10;;;9.67;;
17826;SDS011;9038;48.208;16.308;2022-10-22T10:46:18;10.47;;;9.37;;
17826;SDS011;9038;48.208;16.308;2022-10-22T10:48:40;8.87;;;7.90;;
17826;SDS011;9038;48.208;16.308;2022-10-22T10:50:52;9.13;;;8.23;;
17826;SDS011;9038;48.208;16.308;2022-10-22T10:53:05;8.67;;;7.70;;
17826;SDS011;9038;48.208;16.308;2022-10-22T10:55:18;7.80;;;7.00;;
17826;SDS011;9038;48.208;16.308;2022-10-22T10:57:31;9.47;;;7.67;;
17826;SDS011;9038;48.208;16.308;2022-10-22T10:59:44;6.37;;;5.77;;
17826;SDS011;9038;48.208;16.308;2022-10-22T11:02:00;6.43;;;5.77;;
17826;SDS011;9038;48.208;16.308;2022-10-22T11:07:00;7.30;;;6.60;;
17826;SDS011;9038;48.208;16.308;2022-10-22T11:09:06;7.13;;;6.40;;
17826;SDS011;9038;48.208;16.308;2022-10-22T11:11:16;7.33;;;6.13;;
17826;SDS011;9038;48.208;16.308;2022-10-22T11:13:23;8.57;;;6.87;;
17826;SDS011;9038;48.208;16.308;2022-10-22T11:15:31;7.93;;;6.47;;
17826;SDS011;9038;48.208;16.308;2022-10-22T11:17:37;7.13;;;6.43;;
17826;SDS011;9038;48.208;16.308;2022-10-22T11:19:42;7.07;;;6.43;;
17826;SDS011;9038;48.208;16.308;2022-10-22T11:21:52;7.13;;;6.43;;
17826;SDS011;9038;48.208;16.308;2022-10-22T11:24:01;6.73;;;6.10;;
17826;SDS011;9038;48.208;16.308;2022-10-22T11:26:11;6.20;;;5.70;;
17826;SDS011;9038;48.208;16.308;2022-10-22T11:28:20;5.73;;;5.23;;
17826;SDS011;9038;48.208;16.308;2022-10-22T11:30:27;6.87;;;5.80;;
17826;SDS011;9038;48.208;16.308;2022-10-22T11:32:34;6.27;;;5.70;;
17826;SDS011;9038;48.208;16.308;2022-10-22T11:34:37;6.17;;;5.00;;
17826;SDS011;9038;48.208;16.308;2022-10-22T11:36:44;5.83;;;5.23;;
17826;SDS011;9038;48.208;16.308;2022-10-22T11:38:49;6.07;;;5.17;;
17826;SDS011;9038;48.208;16.308;2022-10-22T11:40:53;5.07;;;4.50;;
17826;SDS011;9038;48.208;16.308;2022-10-22T11:43:02;6.80;;;5.60;;
17826;SDS011;9038;48.208;16.308;2022-10-22T11:45:22;5.23;;;4.83;;
17826;SDS011;9038;48.208;16.308;2022-10-22T11:47:31;5.30;;;4.80;;
17826;SDS011;9038;48.208;16.308;2022-10-22T11:49:40;4.87;;;4.37;;
17826;SDS011;9038;48.208;16.308;2022-10-22T11:51:44;5.20;;;4.70;;
17826;SDS011;9038;48.208;16.308;2022-10-22T11:53:46;5.90;;;4.30;;
17826;SDS011;9038;48.208;16.308;2022-10-22T11:55:56;6.43;;;4.43;;
17826;SDS011;9038;48.208;16.308;2022-10-22T11:58:09;4.50;;;4.10;;
17826;SDS011;9038;48.208;16.308;2022-10-22T12:00:34;4.90;;;3.47;;
17826;SDS011;9038;48.208;16.308;2022-10-22T12:02:42;4.83;;;3.80;;
17826;SDS011;9038;48.208;16.308;2022-10-22T12:04:45;3.37;;;3.17;;
17826;SDS011;9038;48.208;16.308;2022-10-22T12:06:55;5.80;;;3.33;;
17826;SDS011;9038;48.208;16.308;2022-10-22T12:08:59;4.67;;;3.43;;
17826;SDS011;9038;48.208;16.308;2022-10-22T12:11:05;3.27;;;3.00;;
17826;SDS011;9038;48.208;16.308;2022-10-22T12:13:17;4.00;;;2.73;;
17826;SDS011;9038;48.208;16.308;2022-10-22T12:15:22;3.27;;;3.00;;
17826;SDS011;9038;48.208;16.308;2022-10-22T12:17:26;3.20;;;2.90;;
17826;SDS011;9038;48.208;16.308;2022-10-22T12:19:31;3.13;;;2.83;;
17826;SDS011;9038;48.208;16.308;2022-10-22T12:21:37;3.73;;;2.70;;
17826;SDS011;9038;48.208;16.308;2022-10-22T12:23:40;5.90;;;2.90;;
17826;SDS011;9038;48.208;16.308;2022-10-22T12:25:43;3.17;;;2.93;;
17826;SDS011;9038;48.208;16.308;2022-10-22T12:27:48;3.63;;;2.93;;
17826;SDS011;9038;48.208;16.308;2022-10-22T12:29:53;2.97;;;2.40;;
17826;SDS011;9038;48.208;16.308;2022-10-22T12:31:56;3.27;;;2.37;;